createdAt,value
2023-03-30T00:02:58.322Z,76.10
2023-03-30T00:06:08.385Z,75.50
2023-03-30T00:09:14.884Z,75.60
2023-03-30T00:12:20.118Z,75.50
2023-03-30T00:15:26.428Z,75.50
2023-03-30T00:18:31.417Z,75.50
2023-03-30T00:21:39.065Z,75.50
2023-03-30T00:24:42.812Z,75.50
2023-03-30T00:27:48.727Z,75.50
2023-03-30T00:30:53.398Z,75.50
2023-03-30T00:33:59.664Z,75.50
2023-03-30T00:37:05.804Z,75.50
2023-03-30T00:40:15.949Z,75.50
2023-03-30T00:43:19.780Z,75.50
2023-03-30T00:46:25.795Z,75.60
2023-03-30T00:49:31.456Z,75.60
2023-03-30T00:52:40.343Z,75.60
2023-03-30T00:55:46.208Z,75.60
2023-03-30T00:58:52.047Z,75.60
2023-03-30T01:01:55.826Z,75.60
2023-03-30T01:05:05.745Z,75.60
2023-03-30T01:08:13.476Z,75.60
2023-03-30T01:11:20.729Z,75.60
2023-03-30T01:14:25.090Z,75.60
2023-03-30T01:17:33.514Z,75.50
2023-03-30T01:20:58.054Z,75.50
2023-03-30T01:24:27.291Z,75.60
2023-03-30T01:27:49.405Z,75.50
2023-03-30T01:31:12.747Z,75.50
2023-03-30T01:34:24.546Z,75.50
2023-03-30T01:37:45.541Z,75.60
2023-03-30T01:40:53.242Z,75.60
2023-03-30T01:44:02.529Z,75.60
2023-03-30T01:47:09.454Z,75.60
2023-03-30T01:50:17.610Z,75.60
2023-03-30T01:53:26.094Z,75.60
2023-03-30T01:56:36.059Z,75.60
2023-03-30T01:59:42.463Z,75.60
2023-03-30T02:02:52.164Z,75.60
2023-03-30T02:06:03.411Z,75.60
2023-03-30T02:09:10.436Z,76.20
2023-03-30T02:12:16.384Z,75.60
2023-03-30T02:15:23.544Z,75.60
2023-03-30T02:18:27.640Z,75.60
2023-03-30T02:21:34.879Z,75.60
2023-03-30T02:24:40.060Z,75.60
2023-03-30T02:27:48.006Z,75.60
2023-03-30T02:30:51.756Z,75.60
2023-03-30T02:34:05.028Z,75.60
2023-03-30T02:37:23.804Z,75.60
2023-03-30T02:40:37.483Z,75.60
2023-03-30T02:43:46.584Z,75.60
2023-03-30T02:46:59.948Z,75.60
2023-03-30T02:50:05.661Z,75.60
2023-03-30T02:53:18.919Z,75.60
2023-03-30T02:56:25.703Z,75.60
2023-03-30T02:59:39.846Z,75.60
2023-03-30T03:02:44.987Z,75.50
2023-03-30T03:06:02.280Z,75.50
2023-03-30T03:09:08.342Z,75.50
2023-03-30T03:12:14.891Z,75.50
2023-03-30T03:15:20.524Z,75.40
2023-03-30T03:18:42.061Z,75.40
2023-03-30T03:21:46.334Z,75.40
2023-03-30T03:24:52.487Z,75.40
2023-03-30T03:28:22.181Z,75.40
2023-03-30T03:31:33.660Z,75.50
2023-03-30T03:34:39.106Z,75.40
2023-03-30T03:37:45.240Z,75.40
2023-03-30T03:40:51.082Z,75.40
2023-03-30T03:43:56.764Z,75.50
2023-03-30T03:47:03.068Z,75.50
2023-03-30T03:50:09.661Z,75.60
2023-03-30T03:53:14.228Z,75.50
2023-03-30T03:56:20.834Z,76.20
2023-03-30T03:59:25.805Z,75.50
2023-03-30T04:02:33.646Z,75.50
2023-03-30T04:05:37.544Z,75.60
2023-03-30T04:08:45.482Z,75.60
2023-03-30T04:12:00.729Z,75.60
2023-03-30T04:15:35.866Z,75.70
2023-03-30T04:18:59.926Z,75.60
2023-03-30T04:22:33.029Z,75.70
2023-03-30T04:25:57.452Z,75.60
2023-03-30T04:29:22.453Z,75.70
2023-03-30T04:32:46.467Z,75.60
2023-03-30T04:36:17.146Z,75.60
2023-03-30T04:39:57.162Z,75.60
2023-03-30T04:43:22.002Z,75.60
2023-03-30T04:46:52.412Z,75.60
2023-03-30T04:50:16.861Z,75.60
2023-03-30T04:53:41.366Z,75.50
2023-03-30T04:57:13.413Z,75.60
2023-03-30T05:00:23.252Z,75.50
2023-03-30T05:03:55.183Z,75.50
2023-03-30T05:07:19.300Z,75.50
2023-03-30T05:10:54.774Z,75.50
2023-03-30T05:14:21.256Z,75.50
2023-03-30T05:17:47.783Z,75.50
2023-03-30T05:21:13.537Z,75.50
2023-03-30T05:24:19.548Z,75.50
2023-03-30T05:27:44.173Z,75.50
2023-03-30T05:31:03.940Z,75.60
2023-03-30T05:34:27.282Z,75.60
2023-03-30T05:37:59.337Z,75.60
2023-03-30T05:41:29.156Z,75.60
2023-03-30T05:44:44.167Z,75.60
2023-03-30T05:48:26.609Z,75.60
2023-03-30T05:51:47.057Z,75.70
2023-03-30T05:55:09.953Z,75.80
2023-03-30T05:58:19.088Z,75.70
2023-03-30T06:01:42.400Z,75.70
2023-03-30T06:04:48.800Z,75.70
2023-03-30T06:07:53.892Z,75.80
2023-03-30T06:11:00.627Z,75.70
2023-03-30T06:14:10.149Z,75.70
2023-03-30T06:17:18.568Z,75.70
2023-03-30T06:20:24.045Z,75.70
2023-03-30T06:23:30.503Z,75.70
2023-03-30T06:26:38.143Z,75.70
2023-03-30T06:29:44.736Z,75.80
2023-03-30T06:32:51.748Z,75.70
2023-03-30T06:36:02.596Z,75.80
2023-03-30T06:39:06.888Z,75.80
2023-03-30T06:42:14.197Z,75.80
2023-03-30T06:45:29.698Z,75.80
2023-03-30T06:48:37.914Z,75.90
2023-03-30T06:52:04.375Z,75.90
2023-03-30T06:55:13.312Z,75.90
2023-03-30T06:58:17.375Z,75.90
2023-03-30T07:01:26.099Z,75.90
2023-03-30T07:04:56.724Z,75.90
2023-03-30T07:08:08.667Z,76.00
2023-03-30T07:11:15.534Z,76.10
2023-03-30T07:14:23.481Z,76.00
2023-03-30T07:17:31.068Z,76.10
2023-03-30T07:20:39.075Z,76.10
2023-03-30T07:23:53.614Z,76.20
2023-03-30T07:27:08.995Z,76.10
2023-03-30T07:30:21.850Z,76.10
2023-03-30T07:33:31.579Z,76.10
2023-03-30T07:36:39.480Z,76.00
2023-03-30T07:39:45.216Z,76.10
2023-03-30T07:42:50.181Z,76.10
2023-03-30T07:45:56.415Z,76.10
2023-03-30T07:49:07.349Z,76.10
2023-03-30T07:52:16.104Z,76.10
2023-03-30T07:55:30.621Z,76.00
2023-03-30T07:58:46.188Z,76.10
2023-03-30T08:01:51.761Z,76.00
2023-03-30T08:05:15.247Z,76.60
2023-03-30T08:08:42.918Z,76.00
2023-03-30T08:11:52.951Z,76.00
2023-03-30T08:14:57.200Z,76.00
2023-03-30T08:18:07.395Z,76.00
2023-03-30T08:21:11.768Z,76.00
2023-03-30T08:24:19.718Z,76.10
2023-03-30T08:27:23.510Z,76.10
2023-03-30T08:30:29.660Z,76.10
2023-03-30T08:33:34.392Z,76.10
2023-03-30T08:36:40.540Z,76.10
2023-03-30T08:39:46.716Z,76.10
2023-03-30T08:43:05.298Z,76.00
2023-03-30T08:46:14.625Z,75.90
2023-03-30T08:49:21.773Z,75.90
2023-03-30T08:52:26.755Z,76.40
2023-03-30T08:55:38.706Z,76.40
2023-03-30T08:58:47.117Z,75.70
2023-03-30T09:01:55.978Z,75.70
2023-03-30T09:05:02.318Z,75.70
2023-03-30T09:08:11.171Z,75.70
2023-03-30T09:11:19.626Z,75.70
2023-03-30T09:14:28.938Z,75.80
2023-03-30T09:17:34.433Z,75.80
2023-03-30T09:20:42.285Z,75.70
2023-03-30T09:23:47.478Z,75.80
2023-03-30T09:26:58.506Z,75.60
2023-03-30T09:30:06.102Z,75.70
2023-03-30T09:33:17.446Z,75.70
2023-03-30T09:36:27.827Z,75.60
2023-03-30T09:39:35.693Z,75.60
2023-03-30T09:42:49.386Z,75.60
2023-03-30T09:45:57.007Z,75.60
2023-03-30T09:49:14.111Z,75.60
2023-03-30T09:52:22.136Z,75.50
2023-03-30T09:55:27.803Z,75.60
2023-03-30T09:58:35.779Z,75.60
2023-03-30T10:01:39.686Z,75.60
2023-03-30T10:05:02.036Z,75.60
2023-03-30T10:08:06.862Z,75.70
2023-03-30T10:11:12.840Z,75.70
2023-03-30T10:14:31.675Z,75.70
2023-03-30T10:17:42.380Z,75.70
2023-03-30T10:20:51.273Z,75.60
2023-03-30T10:24:02.036Z,75.60
2023-03-30T10:27:11.340Z,75.60
2023-03-30T10:30:20.723Z,75.50
2023-03-30T10:33:27.794Z,75.50
2023-03-30T10:36:35.498Z,75.60
2023-03-30T10:39:41.208Z,75.50
2023-03-30T10:42:47.860Z,75.40
2023-03-30T10:45:53.293Z,76.00
2023-03-30T10:49:14.415Z,75.30
2023-03-30T10:52:25.836Z,75.20
2023-03-30T10:55:34.236Z,75.10
2023-03-30T10:58:45.936Z,74.90
2023-03-30T11:01:57.994Z,74.70
2023-03-30T11:05:04.885Z,74.60
2023-03-30T11:08:17.064Z,74.50
2023-03-30T11:11:22.974Z,74.50
2023-03-30T11:14:36.282Z,74.50
2023-03-30T11:17:43.263Z,74.50
2023-03-30T11:20:52.157Z,74.40
2023-03-30T11:24:00.930Z,74.30
2023-03-30T11:27:08.521Z,74.30
2023-03-30T11:30:16.430Z,74.30
2023-03-30T11:33:28.256Z,74.30
2023-03-30T11:36:34.009Z,74.30
2023-03-30T11:39:45.745Z,74.20
2023-03-30T11:42:51.022Z,74.20
2023-03-30T11:46:04.120Z,74.30
2023-03-30T11:49:23.518Z,74.30
2023-03-30T11:52:32.699Z,74.20
2023-03-30T11:55:47.973Z,74.10
2023-03-30T11:59:00.114Z,74.10
2023-03-30T12:02:08.586Z,73.90
2023-03-30T12:05:18.777Z,74.00
2023-03-30T12:08:27.810Z,73.90
2023-03-30T12:11:39.835Z,73.90
2023-03-30T12:14:53.139Z,73.90
2023-03-30T12:18:02.611Z,73.90
2023-03-30T12:21:16.184Z,74.00
2023-03-30T12:24:25.451Z,73.90
2023-03-30T12:27:32.869Z,73.90
2023-03-30T12:30:43.649Z,73.90
2023-03-30T12:33:48.909Z,73.90
2023-03-30T12:36:57.669Z,73.90
2023-03-30T12:40:05.754Z,73.90
2023-03-30T12:43:19.232Z,73.90
2023-03-30T12:46:28.355Z,73.90
2023-03-30T12:49:39.896Z,73.90
2023-03-30T12:52:49.460Z,73.90
2023-03-30T12:56:01.626Z,73.80
2023-03-30T12:59:25.756Z,73.80
2023-03-30T13:02:40.679Z,73.80
2023-03-30T13:05:45.636Z,73.80
2023-03-30T13:08:55.430Z,73.70
2023-03-30T13:12:21.932Z,73.80
2023-03-30T13:15:36.917Z,73.80
2023-03-30T13:18:54.369Z,73.80
2023-03-30T13:22:06.231Z,73.70
2023-03-30T13:25:24.980Z,73.70
2023-03-30T13:28:45.598Z,73.70
2023-03-30T13:32:05.545Z,73.60
2023-03-30T13:35:28.329Z,73.50
2023-03-30T13:38:35.682Z,73.50
2023-03-30T13:41:47.315Z,73.50
2023-03-30T13:44:56.772Z,73.40
2023-03-30T13:48:12.252Z,73.40
2023-03-30T13:51:17.555Z,73.40
2023-03-30T13:54:25.926Z,73.30
2023-03-30T13:57:33.390Z,73.20
2023-03-30T14:00:44.735Z,73.20
2023-03-30T14:03:52.124Z,73.30
2023-03-30T14:06:58.003Z,73.20
2023-03-30T14:10:06.784Z,73.20
2023-03-30T14:13:14.285Z,73.20
2023-03-30T14:16:23.367Z,73.30
2023-03-30T14:19:33.775Z,73.30
2023-03-30T14:22:40.566Z,73.30
2023-03-30T14:25:46.834Z,73.40
2023-03-30T14:28:51.092Z,73.40
2023-03-30T14:32:07.334Z,73.40
2023-03-30T14:35:22.045Z,73.40
2023-03-30T14:38:30.203Z,73.40
2023-03-30T14:41:34.233Z,73.40
2023-03-30T14:44:41.033Z,73.50
2023-03-30T14:47:45.616Z,73.60
2023-03-30T14:50:53.514Z,73.60
2023-03-30T14:53:57.401Z,73.70
2023-03-30T14:57:04.238Z,73.70
2023-03-30T15:00:21.842Z,73.70
2023-03-30T15:03:34.023Z,73.70
2023-03-30T15:06:40.920Z,73.60
2023-03-30T15:09:47.574Z,73.50
2023-03-30T15:12:51.552Z,73.40
2023-03-30T15:15:57.319Z,73.40
2023-03-30T15:19:02.945Z,73.30
2023-03-30T15:22:14.798Z,73.30
2023-03-30T15:25:19.810Z,73.30
2023-03-30T15:28:25.738Z,73.20
2023-03-30T15:31:29.903Z,73.20
2023-03-30T15:34:36.240Z,73.20
2023-03-30T15:37:51.991Z,73.20
2023-03-30T15:40:57.859Z,73.20
2023-03-30T15:44:11.330Z,73.10
2023-03-30T15:47:19.520Z,73.20
2023-03-30T15:50:25.521Z,73.20
2023-03-30T15:53:37.706Z,73.20
2023-03-30T15:56:42.837Z,73.20
2023-03-30T15:59:50.667Z,73.10
2023-03-30T16:02:57.211Z,73.10
2023-03-30T16:06:03.047Z,73.10
2023-03-30T16:09:09.044Z,73.10
2023-03-30T16:12:16.225Z,73.70
2023-03-30T16:15:20.847Z,73.00
2023-03-30T16:18:26.612Z,73.00
2023-03-30T16:21:30.507Z,73.00
2023-03-30T16:24:38.622Z,72.90
2023-03-30T16:27:42.367Z,72.90
2023-03-30T16:30:49.551Z,72.90
2023-03-30T16:33:53.496Z,72.90
2023-03-30T16:36:59.230Z,72.90
2023-03-30T16:40:12.423Z,72.90
2023-03-30T16:43:18.183Z,72.90
2023-03-30T16:46:22.461Z,72.90
2023-03-30T16:49:28.796Z,72.90
2023-03-30T16:52:32.789Z,72.90
2023-03-30T16:55:41.667Z,73.20
2023-03-30T16:58:45.605Z,72.90
2023-03-30T17:01:52.043Z,72.90
2023-03-30T17:04:55.807Z,72.90
2023-03-30T17:08:05.008Z,72.90
2023-03-30T17:11:12.965Z,72.90
2023-03-30T17:14:19.584Z,72.90
2023-03-30T17:17:23.671Z,72.80
2023-03-30T17:20:32.114Z,72.90
2023-03-30T17:23:36.093Z,72.80
2023-03-30T17:26:44.258Z,72.90
2023-03-30T17:29:47.946Z,72.90
2023-03-30T17:32:54.559Z,72.90
2023-03-30T17:35:59.931Z,72.90
2023-03-30T17:39:06.730Z,72.80
2023-03-30T17:42:12.672Z,72.90
2023-03-30T17:45:19.278Z,72.90
2023-03-30T17:48:24.704Z,72.90
2023-03-30T17:51:30.990Z,72.90
2023-03-30T17:54:34.808Z,72.80
2023-03-30T17:57:43.202Z,72.80
2023-03-30T18:00:47.983Z,72.80
2023-03-30T18:03:53.788Z,72.80
2023-03-30T18:06:57.469Z,72.90
2023-03-30T18:10:04.258Z,72.80
2023-03-30T18:13:10.552Z,72.80
2023-03-30T18:16:17.422Z,72.70
2023-03-30T18:19:21.600Z,72.80
2023-03-30T18:22:27.697Z,72.80
2023-03-30T18:25:32.876Z,72.80
2023-03-30T18:28:41.816Z,72.90
2023-03-30T18:31:45.947Z,72.90
2023-03-30T18:34:51.729Z,72.90
2023-03-30T18:37:55.885Z,72.90
2023-03-30T18:41:01.910Z,72.90
2023-03-30T18:44:08.358Z,72.90
2023-03-30T18:47:14.303Z,72.80
2023-03-30T18:50:22.838Z,72.80
2023-03-30T18:53:30.228Z,72.80
2023-03-30T18:56:36.199Z,72.80
2023-03-30T18:59:44.159Z,72.80
2023-03-30T19:02:48.404Z,72.70
2023-03-30T19:05:54.534Z,72.70
2023-03-30T19:08:58.641Z,72.80
2023-03-30T19:12:04.478Z,72.80
2023-03-30T19:15:16.559Z,72.90
2023-03-30T19:18:22.602Z,72.90
2023-03-30T19:21:26.736Z,72.70
2023-03-30T19:24:32.534Z,72.80
2023-03-30T19:27:36.452Z,72.80
2023-03-30T19:30:44.937Z,72.80
2023-03-30T19:33:49.874Z,72.80
2023-03-30T19:36:56.453Z,72.90
2023-03-30T19:40:00.217Z,72.90
2023-03-30T19:43:06.590Z,72.90
2023-03-30T19:46:12.940Z,72.90
2023-03-30T19:49:19.104Z,72.80
2023-03-30T19:52:22.920Z,72.90
2023-03-30T19:55:29.283Z,72.90
2023-03-30T19:58:33.314Z,72.90
2023-03-30T20:01:41.140Z,72.90
2023-03-30T20:04:44.943Z,72.90
2023-03-30T20:07:51.526Z,72.90
2023-03-30T20:10:59.476Z,72.90
2023-03-30T20:14:05.904Z,72.90
2023-03-30T20:17:12.001Z,72.90
2023-03-30T20:20:24.584Z,72.90
2023-03-30T20:23:28.605Z,73.00
2023-03-30T20:26:34.624Z,72.90
2023-03-30T20:29:38.682Z,73.00
2023-03-30T20:32:56.020Z,72.90
2023-03-30T20:36:03.715Z,72.90
2023-03-30T20:39:13.303Z,72.90
2023-03-30T20:42:21.270Z,73.60
2023-03-30T20:45:27.421Z,73.00
2023-03-30T20:48:36.956Z,73.00
2023-03-30T20:51:44.621Z,73.00
2023-03-30T20:54:49.152Z,73.00
2023-03-30T20:57:54.892Z,73.10
2023-03-30T21:00:59.474Z,73.10
2023-03-30T21:04:07.374Z,73.10
2023-03-30T21:07:11.701Z,73.10
2023-03-30T21:10:17.748Z,73.10
2023-03-30T21:13:21.957Z,73.10
2023-03-30T21:16:27.856Z,73.00
2023-03-30T21:19:33.912Z,73.00
2023-03-30T21:22:40.145Z,73.10
2023-03-30T21:25:44.319Z,73.10
2023-03-30T21:28:50.225Z,73.10
2023-03-30T21:31:54.190Z,73.10
2023-03-30T21:35:01.846Z,73.10
2023-03-30T21:38:08.591Z,73.10
2023-03-30T21:41:15.767Z,73.10
2023-03-30T21:44:19.783Z,73.10
2023-03-30T21:47:25.584Z,73.20
2023-03-30T21:50:31.548Z,73.20
2023-03-30T21:53:37.756Z,73.90
2023-03-30T21:56:41.747Z,73.20
2023-03-30T21:59:48.183Z,73.20
2023-03-30T22:02:51.944Z,73.20
2023-03-30T22:06:01.334Z,73.30
2023-03-30T22:09:05.477Z,73.20
2023-03-30T22:12:11.598Z,73.30
2023-03-30T22:15:17.349Z,73.30
2023-03-30T22:18:21.254Z,73.40
2023-03-30T22:21:33.378Z,73.40
2023-03-30T22:24:37.197Z,73.40
2023-03-30T22:27:44.253Z,73.40
2023-03-30T22:30:47.996Z,73.50
2023-03-30T22:33:54.173Z,73.40
2023-03-30T22:37:00.117Z,73.50
2023-03-30T22:40:07.192Z,73.50
2023-03-30T22:43:11.795Z,73.60
2023-03-30T22:46:17.660Z,73.60
2023-03-30T22:49:21.594Z,73.60
2023-03-30T22:52:29.738Z,73.60
2023-03-30T22:55:33.670Z,73.60
2023-03-30T22:58:39.456Z,73.70
2023-03-30T23:01:43.206Z,73.70
2023-03-30T23:04:52.357Z,73.70
2023-03-30T23:07:58.272Z,73.80
2023-03-30T23:11:05.836Z,73.70
2023-03-30T23:14:09.594Z,73.80
2023-03-30T23:17:15.764Z,73.80
2023-03-30T23:20:19.870Z,73.80
2023-03-30T23:23:27.561Z,73.90
2023-03-30T23:26:31.463Z,73.90
2023-03-30T23:29:37.751Z,73.90
2023-03-30T23:32:41.924Z,73.90
2023-03-30T23:35:50.937Z,73.90
2023-03-30T23:38:56.777Z,73.90
2023-03-30T23:42:02.720Z,73.90
2023-03-30T23:45:07.042Z,73.90
2023-03-30T23:48:12.794Z,74.00
2023-03-30T23:51:16.531Z,73.90
2023-03-30T23:54:24.461Z,73.90
2023-03-30T23:57:28.222Z,73.90
